KALW/ALW METAR and TAF weather

Enter ICAO airport designator
Station Type Date Time Source
KALW METAR 2022/06/28 23:53 UTC NOAA

KALW 282353Z 23012KT 10SM CLR 29/00 A2997 RMK AO2 SLP138 T02890000 10294 20267 58007


Station Type Date Time Source
KALW Decoded METAR 2022/06/28 23:53 UTC NOAA

WALLA WALLA REGIONAL AIRPORT, WA, United States (KALW) 46-06N 118-17W 363M
Jun 28, 2022 - 07:53 PM EDT / 2022.06.28 2353 UTC
Wind: from the SW (230 degrees) at 14 MPH (12 KT):0
Visibility: 10 mile(s):0
Sky conditions: clear
Temperature: 84.0 F (28.9 C)
Dew Point: 32.0 F (0.0 C)
Relative Humidity: 15%
Pressure (altimeter): 29.97 in. Hg (1014 hPa)
Pressure tendency: 0.02 inches (0.7 hPa) lower than three hours ago
ob: KALW 282353Z 23012KT 10SM CLR 29/00 A2997 RMK AO2 SLP138 T02890000 10294 20267 58007
cycle: 0

Station Type Date Time Source
KALW TAF 2022/06/28 18:22 UTC NOAA

TAF KALW 281720Z 2818/2918 22017G28KT P6SM SKC
FM290500 19010KT P6SM SKC
FM291500 22012G22KT P6SM SKC

Example: see airport list